Archival Weather

Republic

Farmingdale, New York (KFRG)

Report from: Wednesday, February 21, 2024 3:53 PM EST
Current time: Friday, June 14, 2024 8:17 AM EDT

Current weather – Weather history – Daily summaries
Weather forecast

Temperature2.8°C (37.0°F)
Wind chill-1.5°C (29.3°F)
Dew point-3.9°C (25.0°F)
Winds 10 kts (5.1 m/s, 11.5 mph) Southeast (140°)
Visibility10 mi. (16.1 km)
Clouds Ceiling: Overcast 3,200 ft. (975 m)
Altimeter30.37 in.Hg (1028 mB)
Relative humidity61 %
Density altitude-1,919 ft. (-585 m)
Sea-level pressure102.8 kPa (1028 mB, 30.37 in.Hg)
Remarks Fully automated report
Automated weather observing station without precipitation discriminator
Pressure falling more slowly
Flight conditions Visual Meteorological Conditions
Raw dataKFRG 212053Z AUTO 14010KT 10SM OVC032 03/M04 A3037 RMK AO1 SLP283 T00281039 56018
An error has occurred. This application may no longer respond until reloaded. Reload 🗙